sensor_id;sensor_type;location;lat;lon;timestamp;P1;durP1;ratioP1;P2;durP2;ratioP2
39982;SDS011;25670;44.782;10.356;2022-12-10T00:01:16;46.95;;;22.92;;
39982;SDS011;25670;44.782;10.356;2022-12-10T00:03:44;47.05;;;24.00;;
39982;SDS011;25670;44.782;10.356;2022-12-10T00:06:11;48.05;;;23.40;;
39982;SDS011;25670;44.782;10.356;2022-12-10T00:08:39;42.15;;;21.67;;
39982;SDS011;25670;44.782;10.356;2022-12-10T00:11:07;52.92;;;24.58;;
39982;SDS011;25670;44.782;10.356;2022-12-10T00:13:35;42.70;;;22.85;;
39982;SDS011;25670;44.782;10.356;2022-12-10T00:16:03;43.60;;;22.83;;
39982;SDS011;25670;44.782;10.356;2022-12-10T00:18:31;41.83;;;22.52;;
39982;SDS011;25670;44.782;10.356;2022-12-10T00:20:58;39.58;;;21.60;;
39982;SDS011;25670;44.782;10.356;2022-12-10T00:23:25;49.28;;;21.70;;
39982;SDS011;25670;44.782;10.356;2022-12-10T00:25:51;40.85;;;21.10;;
39982;SDS011;25670;44.782;10.356;2022-12-10T00:28:17;36.17;;;20.20;;
39982;SDS011;25670;44.782;10.356;2022-12-10T00:30:43;44.65;;;21.70;;
39982;SDS011;25670;44.782;10.356;2022-12-10T00:33:11;36.58;;;20.13;;
39982;SDS011;25670;44.782;10.356;2022-12-10T00:35:37;38.20;;;19.38;;
39982;SDS011;25670;44.782;10.356;2022-12-10T00:38:05;36.92;;;20.52;;
39982;SDS011;25670;44.782;10.356;2022-12-10T00:40:32;41.45;;;22.25;;
39982;SDS011;25670;44.782;10.356;2022-12-10T00:42:59;40.63;;;21.98;;
39982;SDS011;25670;44.782;10.356;2022-12-10T00:45:26;52.00;;;23.08;;
39982;SDS011;25670;44.782;10.356;2022-12-10T00:47:52;44.72;;;22.80;;
39982;SDS011;25670;44.782;10.356;2022-12-10T00:50:19;43.85;;;22.25;;
39982;SDS011;25670;44.782;10.356;2022-12-10T00:52:47;47.47;;;24.65;;
39982;SDS011;25670;44.782;10.356;2022-12-10T00:55:14;48.30;;;24.30;;
39982;SDS011;25670;44.782;10.356;2022-12-10T00:57:40;58.58;;;26.52;;
39982;SDS011;25670;44.782;10.356;2022-12-10T01:00:07;53.72;;;25.95;;
39982;SDS011;25670;44.782;10.356;2022-12-10T01:02:34;49.97;;;24.90;;
39982;SDS011;25670;44.782;10.356;2022-12-10T01:05:00;51.97;;;25.33;;
39982;SDS011;25670;44.782;10.356;2022-12-10T01:07:26;59.85;;;25.80;;
39982;SDS011;25670;44.782;10.356;2022-12-10T01:09:53;57.72;;;26.13;;
39982;SDS011;25670;44.782;10.356;2022-12-10T01:12:20;56.38;;;24.98;;
39982;SDS011;25670;44.782;10.356;2022-12-10T01:14:47;52.90;;;26.00;;
39982;SDS011;25670;44.782;10.356;2022-12-10T01:17:15;59.53;;;26.38;;
39982;SDS011;25670;44.782;10.356;2022-12-10T01:19:44;50.92;;;24.55;;
39982;SDS011;25670;44.782;10.356;2022-12-10T01:22:10;52.75;;;25.42;;
39982;SDS011;25670;44.782;10.356;2022-12-10T01:24:37;50.53;;;24.98;;
39982;SDS011;25670;44.782;10.356;2022-12-10T01:27:03;48.60;;;25.13;;
39982;SDS011;25670;44.782;10.356;2022-12-10T01:29:29;54.47;;;25.23;;
39982;SDS011;25670;44.782;10.356;2022-12-10T01:31:56;55.13;;;25.42;;
39982;SDS011;25670;44.782;10.356;2022-12-10T01:34:23;48.63;;;23.48;;
39982;SDS011;25670;44.782;10.356;2022-12-10T01:36:51;48.00;;;23.35;;
39982;SDS011;25670;44.782;10.356;2022-12-10T01:39:20;48.95;;;24.23;;
39982;SDS011;25670;44.782;10.356;2022-12-10T01:41:49;44.65;;;23.42;;
39982;SDS011;25670;44.782;10.356;2022-12-10T01:46:51;45.38;;;23.95;;
39982;SDS011;25670;44.782;10.356;2022-12-10T01:49:32;41.22;;;22.45;;
39982;SDS011;25670;44.782;10.356;2022-12-10T01:52:00;37.72;;;21.17;;
39982;SDS011;25670;44.782;10.356;2022-12-10T01:54:29;43.17;;;22.35;;
39982;SDS011;25670;44.782;10.356;2022-12-10T01:59:28;44.90;;;21.97;;
39982;SDS011;25670;44.782;10.356;2022-12-10T02:05:23;39.33;;;20.45;;
39982;SDS011;25670;44.782;10.356;2022-12-10T02:10:34;34.63;;;19.90;;
39982;SDS011;25670;44.782;10.356;2022-12-10T02:13:31;37.45;;;19.98;;
39982;SDS011;25670;44.782;10.356;2022-12-10T02:21:06;45.03;;;20.05;;
39982;SDS011;25670;44.782;10.356;2022-12-10T02:23:45;34.55;;;19.40;;
39982;SDS011;25670;44.782;10.356;2022-12-10T02:31:49;29.30;;;17.95;;
39982;SDS011;25670;44.782;10.356;2022-12-10T02:34:19;29.10;;;17.20;;
39982;SDS011;25670;44.782;10.356;2022-12-10T02:36:48;29.80;;;18.50;;
39982;SDS011;25670;44.782;10.356;2022-12-10T02:39:24;31.70;;;18.33;;
39982;SDS011;25670;44.782;10.356;2022-12-10T02:41:57;30.50;;;18.25;;
39982;SDS011;25670;44.782;10.356;2022-12-10T02:44:27;29.13;;;17.73;;
39982;SDS011;25670;44.782;10.356;2022-12-10T02:46:57;30.63;;;17.02;;
39982;SDS011;25670;44.782;10.356;2022-12-10T02:49:30;30.70;;;18.02;;
39982;SDS011;25670;44.782;10.356;2022-12-10T02:52:05;30.92;;;17.27;;
39982;SDS011;25670;44.782;10.356;2022-12-10T02:57:07;27.15;;;16.42;;
39982;SDS011;25670;44.782;10.356;2022-12-10T03:02:25;26.05;;;16.73;;
39982;SDS011;25670;44.782;10.356;2022-12-10T03:05:09;30.35;;;16.85;;
39982;SDS011;25670;44.782;10.356;2022-12-10T03:07:45;28.45;;;17.08;;
39982;SDS011;25670;44.782;10.356;2022-12-10T03:12:47;28.00;;;17.07;;
39982;SDS011;25670;44.782;10.356;2022-12-10T03:15:17;26.63;;;17.60;;
39982;SDS011;25670;44.782;10.356;2022-12-10T03:17:45;25.17;;;16.50;;
39982;SDS011;25670;44.782;10.356;2022-12-10T03:20:13;24.80;;;16.05;;
39982;SDS011;25670;44.782;10.356;2022-12-10T03:22:43;32.85;;;18.20;;
39982;SDS011;25670;44.782;10.356;2022-12-10T03:25:12;29.40;;;17.42;;
39982;SDS011;25670;44.782;10.356;2022-12-10T03:27:42;35.67;;;17.88;;
39982;SDS011;25670;44.782;10.356;2022-12-10T03:30:11;34.70;;;17.73;;
39982;SDS011;25670;44.782;10.356;2022-12-10T03:32:37;33.55;;;18.50;;
39982;SDS011;25670;44.782;10.356;2022-12-10T03:35:04;29.30;;;17.45;;
39982;SDS011;25670;44.782;10.356;2022-12-10T03:37:32;33.65;;;19.00;;
39982;SDS011;25670;44.782;10.356;2022-12-10T03:39:59;28.90;;;17.15;;
39982;SDS011;25670;44.782;10.356;2022-12-10T03:42:26;27.85;;;18.27;;
39982;SDS011;25670;44.782;10.356;2022-12-10T03:44:53;25.60;;;16.50;;
39982;SDS011;25670;44.782;10.356;2022-12-10T03:47:19;24.77;;;16.70;;
39982;SDS011;25670;44.782;10.356;2022-12-10T03:49:46;26.42;;;17.13;;
39982;SDS011;25670;44.782;10.356;2022-12-10T03:52:12;23.70;;;15.88;;
39982;SDS011;25670;44.782;10.356;2022-12-10T03:54:38;27.33;;;17.13;;
39982;SDS011;25670;44.782;10.356;2022-12-10T03:57:04;27.25;;;16.77;;
39982;SDS011;25670;44.782;10.356;2022-12-10T03:59:31;24.77;;;16.15;;
39982;SDS011;25670;44.782;10.356;2022-12-10T04:01:57;22.67;;;15.23;;
39982;SDS011;25670;44.782;10.356;2022-12-10T04:04:24;23.33;;;15.60;;
39982;SDS011;25670;44.782;10.356;2022-12-10T04:06:50;24.27;;;16.30;;
39982;SDS011;25670;44.782;10.356;2022-12-10T04:09:19;19.77;;;14.60;;
39982;SDS011;25670;44.782;10.356;2022-12-10T04:11:49;24.63;;;15.80;;
39982;SDS011;25670;44.782;10.356;2022-12-10T04:14:15;29.65;;;16.27;;
39982;SDS011;25670;44.782;10.356;2022-12-10T04:17:00;28.92;;;16.90;;
39982;SDS011;25670;44.782;10.356;2022-12-10T04:19:26;27.55;;;17.00;;
39982;SDS011;25670;44.782;10.356;2022-12-10T04:21:54;27.25;;;16.55;;
39982;SDS011;25670;44.782;10.356;2022-12-10T04:24:39;27.80;;;17.02;;
39982;SDS011;25670;44.782;10.356;2022-12-10T04:27:38;31.55;;;17.48;;
39982;SDS011;25670;44.782;10.356;2022-12-10T04:30:06;27.90;;;16.70;;
39982;SDS011;25670;44.782;10.356;2022-12-10T04:32:34;30.77;;;17.55;;
39982;SDS011;25670;44.782;10.356;2022-12-10T04:35:01;25.27;;;16.88;;
39982;SDS011;25670;44.782;10.356;2022-12-10T04:37:27;25.30;;;16.05;;
39982;SDS011;25670;44.782;10.356;2022-12-10T04:39:54;35.40;;;15.90;;
39982;SDS011;25670;44.782;10.356;2022-12-10T04:42:21;24.23;;;15.90;;
39982;SDS011;25670;44.782;10.356;2022-12-10T04:44:48;27.83;;;16.50;;
39982;SDS011;25670;44.782;10.356;2022-12-10T04:47:14;25.45;;;15.90;;
39982;SDS011;25670;44.782;10.356;2022-12-10T04:49:41;25.92;;;16.75;;
39982;SDS011;25670;44.782;10.356;2022-12-10T04:52:08;24.73;;;17.52;;
39982;SDS011;25670;44.782;10.356;2022-12-10T04:54:38;27.40;;;16.73;;
39982;SDS011;25670;44.782;10.356;2022-12-10T04:57:04;25.55;;;16.92;;
39982;SDS011;25670;44.782;10.356;2022-12-10T04:59:31;33.05;;;17.52;;
39982;SDS011;25670;44.782;10.356;2022-12-10T05:01:58;23.52;;;15.43;;
39982;SDS011;25670;44.782;10.356;2022-12-10T05:04:24;25.65;;;16.55;;
39982;SDS011;25670;44.782;10.356;2022-12-10T05:06:51;25.73;;;16.17;;
39982;SDS011;25670;44.782;10.356;2022-12-10T05:09:17;26.08;;;16.63;;
39982;SDS011;25670;44.782;10.356;2022-12-10T05:11:43;21.08;;;16.55;;
39982;SDS011;25670;44.782;10.356;2022-12-10T05:14:11;21.85;;;16.23;;
39982;SDS011;25670;44.782;10.356;2022-12-10T05:16:41;30.02;;;16.95;;
39982;SDS011;25670;44.782;10.356;2022-12-10T05:19:09;24.13;;;15.98;;
39982;SDS011;25670;44.782;10.356;2022-12-10T05:21:35;26.50;;;16.90;;
39982;SDS011;25670;44.782;10.356;2022-12-10T05:24:21;26.48;;;17.35;;
39982;SDS011;25670;44.782;10.356;2022-12-10T05:26:48;27.70;;;16.63;;
39982;SDS011;25670;44.782;10.356;2022-12-10T05:29:16;23.58;;;15.98;;
39982;SDS011;25670;44.782;10.356;2022-12-10T05:31:43;29.92;;;18.45;;
39982;SDS011;25670;44.782;10.356;2022-12-10T05:34:10;27.98;;;17.58;;
39982;SDS011;25670;44.782;10.356;2022-12-10T05:36:37;26.40;;;16.63;;
39982;SDS011;25670;44.782;10.356;2022-12-10T05:39:03;27.50;;;17.85;;
39982;SDS011;25670;44.782;10.356;2022-12-10T05:41:30;25.63;;;18.05;;
39982;SDS011;25670;44.782;10.356;2022-12-10T05:44:01;29.23;;;18.92;;
39982;SDS011;25670;44.782;10.356;2022-12-10T05:46:29;29.15;;;18.52;;
39982;SDS011;25670;44.782;10.356;2022-12-10T05:48:56;28.92;;;17.95;;
39982;SDS011;25670;44.782;10.356;2022-12-10T05:51:25;37.75;;;20.70;;
39982;SDS011;25670;44.782;10.356;2022-12-10T05:53:56;34.60;;;20.77;;
39982;SDS011;25670;44.782;10.356;2022-12-10T05:56:24;32.45;;;20.05;;
39982;SDS011;25670;44.782;10.356;2022-12-10T05:58:53;32.28;;;20.00;;
39982;SDS011;25670;44.782;10.356;2022-12-10T06:01:22;30.60;;;19.02;;
39982;SDS011;25670;44.782;10.356;2022-12-10T06:03:50;34.20;;;19.70;;
39982;SDS011;25670;44.782;10.356;2022-12-10T06:06:21;34.13;;;20.40;;
39982;SDS011;25670;44.782;10.356;2022-12-10T06:08:49;31.42;;;20.20;;
39982;SDS011;25670;44.782;10.356;2022-12-10T06:11:16;34.30;;;20.52;;
39982;SDS011;25670;44.782;10.356;2022-12-10T06:13:42;34.13;;;21.20;;
39982;SDS011;25670;44.782;10.356;2022-12-10T06:16:11;33.67;;;20.85;;
39982;SDS011;25670;44.782;10.356;2022-12-10T06:18:39;35.95;;;21.67;;
39982;SDS011;25670;44.782;10.356;2022-12-10T06:21:10;35.28;;;21.30;;
39982;SDS011;25670;44.782;10.356;2022-12-10T06:23:38;35.97;;;21.55;;
39982;SDS011;25670;44.782;10.356;2022-12-10T06:26:08;38.03;;;23.20;;
39982;SDS011;25670;44.782;10.356;2022-12-10T06:28:38;37.17;;;21.85;;
39982;SDS011;25670;44.782;10.356;2022-12-10T06:31:08;35.78;;;21.38;;
39982;SDS011;25670;44.782;10.356;2022-12-10T06:33:34;32.60;;;21.15;;
39982;SDS011;25670;44.782;10.356;2022-12-10T06:36:08;38.22;;;21.70;;
39982;SDS011;25670;44.782;10.356;2022-12-10T06:38:46;35.95;;;21.30;;
39982;SDS011;25670;44.782;10.356;2022-12-10T06:41:13;34.60;;;21.42;;
39982;SDS011;25670;44.782;10.356;2022-12-10T06:43:40;37.03;;;21.08;;
39982;SDS011;25670;44.782;10.356;2022-12-10T06:46:07;39.08;;;22.13;;
39982;SDS011;25670;44.782;10.356;2022-12-10T06:48:36;37.47;;;21.23;;
39982;SDS011;25670;44.782;10.356;2022-12-10T06:51:02;39.08;;;22.25;;
39982;SDS011;25670;44.782;10.356;2022-12-10T06:53:30;38.97;;;21.92;;
39982;SDS011;25670;44.782;10.356;2022-12-10T06:55:58;38.92;;;23.58;;
39982;SDS011;25670;44.782;10.356;2022-12-10T06:58:26;34.45;;;21.58;;
39982;SDS011;25670;44.782;10.356;2022-12-10T07:00:54;42.03;;;23.48;;
39982;SDS011;25670;44.782;10.356;2022-12-10T07:03:20;44.22;;;23.60;;
39982;SDS011;25670;44.782;10.356;2022-12-10T07:05:47;45.72;;;24.15;;
39982;SDS011;25670;44.782;10.356;2022-12-10T07:08:14;41.08;;;23.10;;
39982;SDS011;25670;44.782;10.356;2022-12-10T07:10:40;46.63;;;24.65;;
39982;SDS011;25670;44.782;10.356;2022-12-10T07:13:06;46.83;;;24.83;;
39982;SDS011;25670;44.782;10.356;2022-12-10T07:15:33;43.83;;;24.38;;
39982;SDS011;25670;44.782;10.356;2022-12-10T07:17:59;53.70;;;25.08;;
39982;SDS011;25670;44.782;10.356;2022-12-10T07:20:26;44.40;;;25.83;;
39982;SDS011;25670;44.782;10.356;2022-12-10T07:22:52;49.53;;;26.05;;
39982;SDS011;25670;44.782;10.356;2022-12-10T07:25:18;52.10;;;27.42;;
39982;SDS011;25670;44.782;10.356;2022-12-10T07:27:44;48.58;;;26.92;;
39982;SDS011;25670;44.782;10.356;2022-12-10T07:30:11;56.53;;;29.45;;
39982;SDS011;25670;44.782;10.356;2022-12-10T07:32:40;57.20;;;28.05;;
39982;SDS011;25670;44.782;10.356;2022-12-10T07:35:07;51.45;;;27.40;;
39982;SDS011;25670;44.782;10.356;2022-12-10T07:37:33;54.55;;;28.88;;
39982;SDS011;25670;44.782;10.356;2022-12-10T07:40:00;52.92;;;29.13;;
39982;SDS011;25670;44.782;10.356;2022-12-10T07:42:27;57.28;;;29.33;;
39982;SDS011;25670;44.782;10.356;2022-12-10T07:44:53;53.15;;;28.90;;
39982;SDS011;25670;44.782;10.356;2022-12-10T07:47:19;48.38;;;27.70;;
39982;SDS011;25670;44.782;10.356;2022-12-10T07:49:46;52.53;;;28.27;;
39982;SDS011;25670;44.782;10.356;2022-12-10T07:52:12;59.00;;;31.42;;
39982;SDS011;25670;44.782;10.356;2022-12-10T07:54:39;59.17;;;29.90;;
39982;SDS011;25670;44.782;10.356;2022-12-10T07:57:06;58.05;;;30.02;;
39982;SDS011;25670;44.782;10.356;2022-12-10T07:59:32;53.47;;;29.17;;
39982;SDS011;25670;44.782;10.356;2022-12-10T08:02:00;57.38;;;30.85;;
39982;SDS011;25670;44.782;10.356;2022-12-10T08:04:29;56.40;;;30.73;;
39982;SDS011;25670;44.782;10.356;2022-12-10T08:06:56;58.53;;;29.90;;
39982;SDS011;25670;44.782;10.356;2022-12-10T08:09:22;53.47;;;29.65;;
39982;SDS011;25670;44.782;10.356;2022-12-10T08:11:49;62.72;;;32.78;;
39982;SDS011;25670;44.782;10.356;2022-12-10T08:14:15;60.95;;;31.17;;
39982;SDS011;25670;44.782;10.356;2022-12-10T08:16:41;57.25;;;30.77;;
39982;SDS011;25670;44.782;10.356;2022-12-10T08:19:08;58.08;;;30.25;;
39982;SDS011;25670;44.782;10.356;2022-12-10T08:21:35;63.92;;;32.95;;
39982;SDS011;25670;44.782;10.356;2022-12-10T08:24:01;64.20;;;33.97;;
39982;SDS011;25670;44.782;10.356;2022-12-10T08:26:28;67.40;;;33.55;;
39982;SDS011;25670;44.782;10.356;2022-12-10T08:28:57;63.80;;;31.95;;
39982;SDS011;25670;44.782;10.356;2022-12-10T08:31:24;62.88;;;32.55;;
39982;SDS011;25670;44.782;10.356;2022-12-10T08:33:52;61.22;;;30.38;;
39982;SDS011;25670;44.782;10.356;2022-12-10T08:36:18;63.53;;;32.45;;
39982;SDS011;25670;44.782;10.356;2022-12-10T08:38:45;61.45;;;32.72;;
39982;SDS011;25670;44.782;10.356;2022-12-10T08:43:39;58.88;;;31.50;;
39982;SDS011;25670;44.782;10.356;2022-12-10T08:46:06;64.95;;;33.53;;
39982;SDS011;25670;44.782;10.356;2022-12-10T08:48:33;60.60;;;33.08;;
39982;SDS011;25670;44.782;10.356;2022-12-10T08:51:01;64.00;;;33.03;;
39982;SDS011;25670;44.782;10.356;2022-12-10T08:53:30;63.13;;;34.55;;
39982;SDS011;25670;44.782;10.356;2022-12-10T08:55:57;60.00;;;32.65;;
39982;SDS011;25670;44.782;10.356;2022-12-10T08:58:23;58.97;;;31.63;;
39982;SDS011;25670;44.782;10.356;2022-12-10T09:00:50;63.40;;;33.45;;
39982;SDS011;25670;44.782;10.356;2022-12-10T09:03:16;64.38;;;33.28;;
39982;SDS011;25670;44.782;10.356;2022-12-10T09:05:43;62.65;;;32.35;;
39982;SDS011;25670;44.782;10.356;2022-12-10T09:08:10;60.13;;;32.42;;
39982;SDS011;25670;44.782;10.356;2022-12-10T09:10:39;61.78;;;32.85;;
39982;SDS011;25670;44.782;10.356;2022-12-10T09:13:06;59.08;;;31.35;;
39982;SDS011;25670;44.782;10.356;2022-12-10T09:15:32;62.30;;;32.40;;
39982;SDS011;25670;44.782;10.356;2022-12-10T09:17:59;66.85;;;33.22;;
39982;SDS011;25670;44.782;10.356;2022-12-10T09:20:25;64.10;;;32.88;;
39982;SDS011;25670;44.782;10.356;2022-12-10T09:22:52;61.17;;;31.23;;
39982;SDS011;25670;44.782;10.356;2022-12-10T09:25:18;67.20;;;32.85;;
39982;SDS011;25670;44.782;10.356;2022-12-10T09:27:47;57.35;;;30.80;;
39982;SDS011;25670;44.782;10.356;2022-12-10T09:30:13;55.13;;;29.33;;
39982;SDS011;25670;44.782;10.356;2022-12-10T09:32:40;60.80;;;30.85;;
39982;SDS011;25670;44.782;10.356;2022-12-10T09:35:07;57.67;;;29.05;;
39982;SDS011;25670;44.782;10.356;2022-12-10T09:37:33;56.60;;;30.13;;
39982;SDS011;25670;44.782;10.356;2022-12-10T09:39:59;59.03;;;29.90;;
39982;SDS011;25670;44.782;10.356;2022-12-10T09:45:22;63.40;;;31.73;;
39982;SDS011;25670;44.782;10.356;2022-12-10T09:50:41;61.17;;;30.60;;
39982;SDS011;25670;44.782;10.356;2022-12-10T09:53:17;58.38;;;31.13;;
39982;SDS011;25670;44.782;10.356;2022-12-10T09:55:46;60.17;;;31.33;;
39982;SDS011;25670;44.782;10.356;2022-12-10T09:58:15;59.45;;;29.90;;
39982;SDS011;25670;44.782;10.356;2022-12-10T10:00:46;56.70;;;29.20;;
39982;SDS011;25670;44.782;10.356;2022-12-10T10:03:17;54.85;;;28.90;;
39982;SDS011;25670;44.782;10.356;2022-12-10T10:05:46;59.95;;;30.70;;
39982;SDS011;25670;44.782;10.356;2022-12-10T10:08:15;54.92;;;28.33;;
39982;SDS011;25670;44.782;10.356;2022-12-10T10:10:51;49.65;;;28.30;;
39982;SDS011;25670;44.782;10.356;2022-12-10T10:13:21;51.08;;;27.35;;
39982;SDS011;25670;44.782;10.356;2022-12-10T10:15:52;54.85;;;27.48;;
39982;SDS011;25670;44.782;10.356;2022-12-10T10:21:16;54.65;;;27.80;;
39982;SDS011;25670;44.782;10.356;2022-12-10T10:26:19;57.88;;;26.98;;
39982;SDS011;25670;44.782;10.356;2022-12-10T10:28:45;52.00;;;27.50;;
39982;SDS011;25670;44.782;10.356;2022-12-10T10:31:22;49.38;;;26.98;;
39982;SDS011;25670;44.782;10.356;2022-12-10T10:33:53;46.35;;;25.98;;
39982;SDS011;25670;44.782;10.356;2022-12-10T10:36:27;47.00;;;25.85;;
39982;SDS011;25670;44.782;10.356;2022-12-10T10:38:56;51.00;;;27.17;;
39982;SDS011;25670;44.782;10.356;2022-12-10T10:41:23;50.35;;;27.45;;
39982;SDS011;25670;44.782;10.356;2022-12-10T10:43:53;50.47;;;26.48;;
39982;SDS011;25670;44.782;10.356;2022-12-10T10:46:26;48.42;;;26.83;;
39982;SDS011;25670;44.782;10.356;2022-12-10T10:48:53;47.60;;;25.42;;
39982;SDS011;25670;44.782;10.356;2022-12-10T10:51:43;47.28;;;25.45;;
39982;SDS011;25670;44.782;10.356;2022-12-10T10:54:30;43.95;;;24.80;;
39982;SDS011;25670;44.782;10.356;2022-12-10T10:57:03;47.45;;;24.90;;
39982;SDS011;25670;44.782;10.356;2022-12-10T10:59:54;44.67;;;24.20;;
39982;SDS011;25670;44.782;10.356;2022-12-10T11:02:29;45.65;;;24.13;;
39982;SDS011;25670;44.782;10.356;2022-12-10T11:04:56;40.22;;;23.55;;
39982;SDS011;25670;44.782;10.356;2022-12-10T11:10:26;42.80;;;23.73;;
39982;SDS011;25670;44.782;10.356;2022-12-10T11:13:39;39.25;;;22.27;;
39982;SDS011;25670;44.782;10.356;2022-12-10T11:21:06;46.30;;;25.50;;
39982;SDS011;25670;44.782;10.356;2022-12-10T11:23:37;49.10;;;26.88;;
39982;SDS011;25670;44.782;10.356;2022-12-10T11:31:27;50.58;;;27.67;;
39982;SDS011;25670;44.782;10.356;2022-12-10T11:34:14;42.75;;;24.10;;
39982;SDS011;25670;44.782;10.356;2022-12-10T11:45:19;44.67;;;25.38;;
39982;SDS011;25670;44.782;10.356;2022-12-10T11:51:00;48.97;;;26.27;;
39982;SDS011;25670;44.782;10.356;2022-12-10T11:56:27;47.00;;;26.13;;
39982;SDS011;25670;44.782;10.356;2022-12-10T11:59:14;48.22;;;25.73;;
39982;SDS011;25670;44.782;10.356;2022-12-10T12:12:58;49.22;;;26.83;;
39982;SDS011;25670;44.782;10.356;2022-12-10T12:15:27;45.97;;;26.08;;
39982;SDS011;25670;44.782;10.356;2022-12-10T12:20:55;44.55;;;24.23;;
39982;SDS011;25670;44.782;10.356;2022-12-10T12:23:26;50.33;;;24.90;;
39982;SDS011;25670;44.782;10.356;2022-12-10T12:26:15;50.22;;;25.20;;
39982;SDS011;25670;44.782;10.356;2022-12-10T12:28:47;47.13;;;25.35;;
39982;SDS011;25670;44.782;10.356;2022-12-10T12:31:29;51.03;;;25.42;;
39982;SDS011;25670;44.782;10.356;2022-12-10T12:34:05;47.05;;;24.15;;
39982;SDS011;25670;44.782;10.356;2022-12-10T12:36:52;43.17;;;23.80;;
39982;SDS011;25670;44.782;10.356;2022-12-10T12:46:55;48.70;;;25.50;;
39982;SDS011;25670;44.782;10.356;2022-12-10T12:49:29;46.78;;;24.77;;
39982;SDS011;25670;44.782;10.356;2022-12-10T12:52:00;45.33;;;25.10;;
39982;SDS011;25670;44.782;10.356;2022-12-10T12:54:31;43.78;;;24.38;;
39982;SDS011;25670;44.782;10.356;2022-12-10T12:57:12;41.28;;;23.88;;
39982;SDS011;25670;44.782;10.356;2022-12-10T13:00:05;41.22;;;24.05;;
39982;SDS011;25670;44.782;10.356;2022-12-10T13:05:13;43.95;;;25.55;;
39982;SDS011;25670;44.782;10.356;2022-12-10T13:16:34;43.38;;;24.35;;
39982;SDS011;25670;44.782;10.356;2022-12-10T13:25:04;42.08;;;22.42;;
39982;SDS011;25670;44.782;10.356;2022-12-10T13:29:56;44.30;;;23.50;;
39982;SDS011;25670;44.782;10.356;2022-12-10T13:40:23;35.42;;;20.40;;
39982;SDS011;25670;44.782;10.356;2022-12-10T13:43:37;40.13;;;22.27;;
39982;SDS011;25670;44.782;10.356;2022-12-10T13:48:53;40.72;;;20.90;;
39982;SDS011;25670;44.782;10.356;2022-12-10T13:54:11;50.70;;;23.45;;
39982;SDS011;25670;44.782;10.356;2022-12-10T13:56:41;38.47;;;22.15;;
39982;SDS011;25670;44.782;10.356;2022-12-10T14:02:02;38.65;;;22.33;;
39982;SDS011;25670;44.782;10.356;2022-12-10T14:07:32;42.22;;;22.35;;
39982;SDS011;25670;44.782;10.356;2022-12-10T14:09:59;36.38;;;22.10;;
39982;SDS011;25670;44.782;10.356;2022-12-10T14:12:34;38.60;;;21.35;;
39982;SDS011;25670;44.782;10.356;2022-12-10T14:15:06;45.40;;;23.70;;
39982;SDS011;25670;44.782;10.356;2022-12-10T14:17:36;37.97;;;22.23;;
39982;SDS011;25670;44.782;10.356;2022-12-10T14:20:07;43.13;;;23.40;;
39982;SDS011;25670;44.782;10.356;2022-12-10T14:22:43;42.00;;;21.98;;
39982;SDS011;25670;44.782;10.356;2022-12-10T14:25:13;42.70;;;23.13;;
39982;SDS011;25670;44.782;10.356;2022-12-10T14:27:43;45.20;;;23.77;;
39982;SDS011;25670;44.782;10.356;2022-12-10T14:30:19;41.92;;;23.10;;
39982;SDS011;25670;44.782;10.356;2022-12-10T14:32:47;37.88;;;21.67;;
39982;SDS011;25670;44.782;10.356;2022-12-10T14:35:16;42.95;;;22.70;;
39982;SDS011;25670;44.782;10.356;2022-12-10T14:37:46;47.88;;;25.05;;
39982;SDS011;25670;44.782;10.356;2022-12-10T14:40:19;45.55;;;24.48;;
39982;SDS011;25670;44.782;10.356;2022-12-10T14:42:45;42.92;;;22.55;;
39982;SDS011;25670;44.782;10.356;2022-12-10T14:45:12;39.50;;;22.60;;
39982;SDS011;25670;44.782;10.356;2022-12-10T14:47:40;43.00;;;22.63;;
39982;SDS011;25670;44.782;10.356;2022-12-10T14:50:11;44.08;;;23.58;;
39982;SDS011;25670;44.782;10.356;2022-12-10T14:52:40;45.05;;;24.30;;
39982;SDS011;25670;44.782;10.356;2022-12-10T14:55:15;44.92;;;23.77;;
39982;SDS011;25670;44.782;10.356;2022-12-10T14:57:47;45.55;;;24.45;;
39982;SDS011;25670;44.782;10.356;2022-12-10T15:00:22;42.33;;;22.35;;
39982;SDS011;25670;44.782;10.356;2022-12-10T15:03:06;40.90;;;22.25;;
39982;SDS011;25670;44.782;10.356;2022-12-10T15:05:35;39.55;;;21.55;;
39982;SDS011;25670;44.782;10.356;2022-12-10T15:10:44;45.55;;;23.23;;
39982;SDS011;25670;44.782;10.356;2022-12-10T15:13:19;41.92;;;23.33;;
39982;SDS011;25670;44.782;10.356;2022-12-10T15:15:53;37.00;;;21.38;;
39982;SDS011;25670;44.782;10.356;2022-12-10T15:18:28;41.00;;;23.00;;
39982;SDS011;25670;44.782;10.356;2022-12-10T15:23:41;37.47;;;21.35;;
39982;SDS011;25670;44.782;10.356;2022-12-10T15:28:43;38.95;;;21.80;;
39982;SDS011;25670;44.782;10.356;2022-12-10T15:31:11;41.35;;;22.13;;
39982;SDS011;25670;44.782;10.356;2022-12-10T15:33:57;39.67;;;22.20;;
39982;SDS011;25670;44.782;10.356;2022-12-10T15:36:36;41.72;;;22.30;;
39982;SDS011;25670;44.782;10.356;2022-12-10T15:49:24;38.88;;;22.30;;
39982;SDS011;25670;44.782;10.356;2022-12-10T15:51:50;42.78;;;22.70;;
39982;SDS011;25670;44.782;10.356;2022-12-10T15:54:25;51.55;;;28.77;;
39982;SDS011;25670;44.782;10.356;2022-12-10T15:56:58;40.75;;;22.80;;
39982;SDS011;25670;44.782;10.356;2022-12-10T15:59:24;48.35;;;24.60;;
39982;SDS011;25670;44.782;10.356;2022-12-10T16:01:50;44.05;;;24.90;;
39982;SDS011;25670;44.782;10.356;2022-12-10T16:04:17;47.13;;;24.38;;
39982;SDS011;25670;44.782;10.356;2022-12-10T16:06:43;47.28;;;25.38;;
39982;SDS011;25670;44.782;10.356;2022-12-10T16:09:10;51.00;;;24.95;;
39982;SDS011;25670;44.782;10.356;2022-12-10T16:11:36;46.80;;;23.88;;
39982;SDS011;25670;44.782;10.356;2022-12-10T16:14:02;49.08;;;25.85;;
39982;SDS011;25670;44.782;10.356;2022-12-10T16:16:29;48.75;;;25.65;;
39982;SDS011;25670;44.782;10.356;2022-12-10T16:18:56;47.33;;;24.23;;
39982;SDS011;25670;44.782;10.356;2022-12-10T16:21:22;51.97;;;26.15;;
39982;SDS011;25670;44.782;10.356;2022-12-10T16:23:49;48.47;;;25.92;;
39982;SDS011;25670;44.782;10.356;2022-12-10T16:26:17;47.30;;;24.85;;
39982;SDS011;25670;44.782;10.356;2022-12-10T16:28:46;50.17;;;25.17;;
39982;SDS011;25670;44.782;10.356;2022-12-10T16:31:17;44.83;;;24.60;;
39982;SDS011;25670;44.782;10.356;2022-12-10T16:33:46;47.08;;;25.55;;
39982;SDS011;25670;44.782;10.356;2022-12-10T16:36:14;42.35;;;24.00;;
39982;SDS011;25670;44.782;10.356;2022-12-10T16:38:43;45.70;;;24.85;;
39982;SDS011;25670;44.782;10.356;2022-12-10T16:41:14;48.83;;;25.70;;
39982;SDS011;25670;44.782;10.356;2022-12-10T16:43:42;51.47;;;26.65;;
39982;SDS011;25670;44.782;10.356;2022-12-10T16:46:10;49.90;;;26.80;;
39982;SDS011;25670;44.782;10.356;2022-12-10T16:48:37;53.85;;;27.52;;
39982;SDS011;25670;44.782;10.356;2022-12-10T16:51:05;53.72;;;27.70;;
39982;SDS011;25670;44.782;10.356;2022-12-10T16:53:39;56.40;;;28.27;;